createdAt,value
2018-06-17T00:02:22.555Z,20.13
2018-06-17T00:04:50.800Z,19.07
2018-06-17T00:07:19.056Z,20.07
2018-06-17T00:09:47.308Z,19.77
2018-06-17T00:12:15.563Z,20.37
2018-06-17T00:14:43.813Z,20.47
2018-06-17T00:17:12.079Z,20.80
2018-06-17T00:19:40.338Z,20.43
2018-06-17T00:22:08.604Z,21.30
2018-06-17T00:24:36.854Z,20.97
2018-06-17T00:27:05.154Z,20.73
2018-06-17T00:29:33.413Z,20.07
2018-06-17T00:32:01.680Z,19.53
2018-06-17T00:34:29.945Z,19.27
2018-06-17T00:36:58.198Z,19.87
2018-06-17T00:39:26.198Z,19.60
2018-06-17T00:41:54.464Z,19.70
2018-06-17T00:44:22.709Z,19.33
2018-06-17T00:46:50.969Z,20.37
2018-06-17T00:49:19.224Z,19.03
2018-06-17T00:51:47.479Z,20.77
2018-06-17T00:54:15.996Z,18.60
2018-06-17T00:56:49.427Z,19.20
2018-06-17T00:59:17.698Z,19.83
2018-06-17T01:01:45.946Z,19.43
2018-06-17T01:04:14.215Z,19.37
2018-06-17T01:06:42.499Z,18.87
2018-06-17T01:09:10.822Z,18.37
2018-06-17T01:11:39.099Z,19.07
2018-06-17T01:14:07.390Z,18.07
2018-06-17T01:16:35.722Z,18.40
2018-06-17T01:19:04.008Z,18.07
2018-06-17T01:21:32.266Z,18.67
2018-06-17T01:24:00.548Z,20.40
2018-06-17T01:26:28.829Z,19.37
2018-06-17T01:28:57.094Z,19.10
2018-06-17T01:31:25.356Z,18.43
2018-06-17T01:33:53.680Z,19.97
2018-06-17T01:36:21.942Z,19.03
2018-06-17T01:38:50.206Z,20.43
2018-06-17T01:41:18.466Z,21.60
2018-06-17T01:43:46.738Z,21.10
2018-06-17T01:46:15.006Z,21.17
2018-06-17T01:48:43.271Z,21.57
2018-06-17T01:51:11.531Z,22.33
2018-06-17T01:53:39.791Z,22.53
2018-06-17T01:56:08.054Z,23.00
2018-06-17T01:58:36.534Z,24.00
2018-06-17T02:01:04.937Z,23.13
2018-06-17T02:03:38.527Z,23.33
2018-06-17T02:06:12.135Z,22.60
2018-06-17T02:08:45.676Z,22.50
2018-06-17T02:11:19.258Z,23.63
2018-06-17T02:13:47.553Z,23.23
2018-06-17T02:16:15.856Z,23.70
2018-06-17T02:18:44.152Z,23.27
2018-06-17T02:21:12.423Z,23.90
2018-06-17T02:23:40.687Z,25.40
2018-06-17T02:26:08.960Z,26.13
2018-06-17T02:28:37.227Z,23.30
2018-06-17T02:31:05.539Z,21.67
2018-06-17T02:33:33.807Z,22.30
2018-06-17T02:36:02.085Z,21.40
2018-06-17T02:38:30.354Z,22.33
2018-06-17T02:40:58.612Z,26.00
2018-06-17T02:43:26.881Z,25.27
2018-06-17T02:46:00.410Z,23.87
2018-06-17T02:48:34.153Z,25.13
2018-06-17T02:51:07.866Z,23.60
2018-06-17T02:53:41.722Z,23.27
2018-06-17T02:56:09.998Z,22.33
2018-06-17T02:58:38.263Z,25.73
2018-06-17T03:01:06.556Z,22.63
2018-06-17T03:03:34.877Z,24.23
2018-06-17T03:06:03.236Z,22.90
2018-06-17T03:08:31.499Z,24.27
2018-06-17T03:10:59.765Z,24.17
2018-06-17T03:13:27.778Z,24.27
2018-06-17T03:15:56.042Z,23.43
2018-06-17T03:18:24.319Z,23.37
2018-06-17T03:20:52.887Z,23.73
2018-06-17T03:23:21.158Z,23.13
2018-06-17T03:25:54.921Z,22.50
2018-06-17T03:28:28.607Z,23.80
2018-06-17T03:31:02.415Z,21.67
2018-06-17T03:33:36.086Z,20.37
2018-06-17T03:36:10.265Z,22.40
2018-06-17T03:38:39.630Z,22.13
2018-06-17T03:41:08.006Z,21.03
2018-06-17T03:43:36.430Z,22.43
2018-06-17T03:46:04.715Z,22.93
2018-06-17T03:48:33.267Z,22.93
2018-06-17T03:51:01.755Z,21.97
2018-06-17T03:53:30.065Z,22.70
2018-06-17T03:55:58.438Z,21.57
2018-06-17T03:58:26.727Z,21.30
2018-06-17T04:00:55.101Z,21.63
2018-06-17T04:03:23.367Z,21.40
2018-06-17T04:05:51.644Z,19.43
2018-06-17T04:08:19.909Z,21.17
2018-06-17T04:10:48.174Z,21.70
2018-06-17T04:13:16.457Z,21.30
2018-06-17T04:15:44.726Z,22.73
2018-06-17T04:18:12.985Z,21.57
2018-06-17T04:20:41.258Z,21.07
2018-06-17T04:23:09.518Z,20.77
2018-06-17T04:25:37.807Z,19.87
2018-06-17T04:28:06.090Z,18.30
2018-06-17T04:30:34.598Z,18.03
2018-06-17T04:33:02.863Z,18.03
2018-06-17T04:35:31.154Z,16.87
2018-06-17T04:37:59.423Z,17.00
2018-06-17T04:40:27.750Z,17.50
2018-06-17T04:42:56.031Z,17.83
2018-06-17T04:45:24.295Z,17.53
2018-06-17T04:47:52.582Z,18.07
2018-06-17T04:50:20.847Z,17.50
2018-06-17T04:52:49.115Z,16.40
2018-06-17T04:55:17.388Z,15.30
2018-06-17T04:57:45.653Z,15.50
2018-06-17T05:00:13.927Z,16.33
2018-06-17T05:02:42.198Z,15.67
2018-06-17T05:05:10.462Z,16.47
2018-06-17T05:07:38.762Z,15.27
2018-06-17T05:10:07.050Z,16.03
2018-06-17T05:12:35.319Z,15.87
2018-06-17T05:15:03.817Z,15.00
2018-06-17T05:17:32.111Z,14.67
2018-06-17T05:20:00.375Z,15.33
2018-06-17T05:22:28.654Z,14.93
2018-06-17T05:24:57.071Z,15.97
2018-06-17T05:27:25.911Z,16.40
2018-06-17T05:29:54.179Z,16.33
2018-06-17T05:32:22.507Z,15.53
2018-06-17T05:34:50.779Z,16.57
2018-06-17T05:37:19.034Z,13.60
2018-06-17T05:39:47.294Z,14.67
2018-06-17T05:42:15.558Z,13.90
2018-06-17T05:44:43.828Z,12.53
2018-06-17T05:47:12.086Z,11.57
2018-06-17T05:49:40.348Z,11.87
2018-06-17T05:52:08.632Z,10.33
2018-06-17T05:54:36.955Z,10.50
2018-06-17T05:57:05.250Z,10.47
2018-06-17T05:59:33.629Z,8.70
2018-06-17T06:02:01.899Z,9.55
2018-06-17T06:04:30.171Z,9.35
2018-06-17T06:06:58.442Z,9.23
2018-06-17T06:09:26.708Z,8.70
2018-06-17T06:11:54.960Z,7.90
2018-06-17T06:17:01.451Z,8.25
2018-06-17T06:19:29.744Z,7.55
2018-06-17T06:21:58.009Z,7.10
2018-06-17T06:24:26.292Z,6.92
2018-06-17T06:26:54.563Z,6.90
2018-06-17T06:29:23.396Z,5.58
2018-06-17T06:31:51.724Z,6.67
2018-06-17T06:34:19.978Z,6.90
2018-06-17T06:36:48.243Z,7.58
2018-06-17T06:39:16.502Z,7.00
2018-06-17T06:41:46.306Z,6.50
2018-06-17T06:44:14.603Z,6.40
2018-06-17T06:46:42.871Z,5.58
2018-06-17T06:49:11.127Z,6.33
2018-06-17T06:51:39.400Z,6.35
2018-06-17T06:54:07.670Z,5.75
2018-06-17T06:56:36.011Z,5.47
2018-06-17T06:59:06.990Z,5.12
2018-06-17T07:01:46.702Z,4.50
2018-06-17T07:04:26.447Z,5.20
2018-06-17T07:07:06.058Z,5.20
2018-06-17T07:09:45.852Z,5.25
2018-06-17T07:12:14.161Z,5.25
2018-06-17T07:14:42.442Z,7.10
2018-06-17T07:17:22.047Z,7.17
2018-06-17T07:19:50.428Z,7.47
2018-06-17T07:22:18.709Z,7.83
2018-06-17T07:24:47.006Z,7.23
2018-06-17T07:27:26.700Z,8.40
2018-06-17T07:29:54.956Z,8.80
2018-06-17T07:32:23.218Z,8.33
2018-06-17T07:34:51.473Z,8.97
2018-06-17T07:37:19.726Z,8.73
2018-06-17T07:40:54.103Z,8.57
2018-06-17T07:43:22.517Z,8.50
2018-06-17T07:45:50.811Z,9.03
2018-06-17T07:48:30.527Z,7.93
2018-06-17T07:51:10.311Z,7.17
2018-06-17T07:53:38.587Z,7.40
2018-06-17T07:56:06.876Z,7.97
2018-06-17T07:58:35.334Z,7.50
2018-06-17T08:01:03.334Z,7.17
2018-06-17T08:03:31.624Z,6.93
2018-06-17T08:06:01.063Z,6.87
2018-06-17T08:08:29.319Z,6.87
2018-06-17T08:10:57.596Z,7.30
2018-06-17T08:13:25.871Z,7.17
2018-06-17T08:15:54.152Z,7.07
2018-06-17T08:18:22.443Z,7.13
2018-06-17T08:20:50.886Z,7.10
2018-06-17T08:23:19.164Z,6.40
2018-06-17T08:25:48.396Z,6.70
2018-06-17T08:28:16.707Z,6.63
2018-06-17T08:30:45.109Z,6.50
2018-06-17T08:33:13.411Z,6.20
2018-06-17T08:35:41.743Z,6.00
2018-06-17T08:38:09.998Z,6.40
2018-06-17T08:40:38.599Z,6.30
2018-06-17T08:43:06.983Z,6.70
2018-06-17T08:45:35.333Z,6.47
2018-06-17T08:48:03.674Z,6.50
2018-06-17T08:50:31.977Z,6.77
2018-06-17T08:53:00.268Z,6.10
2018-06-17T08:55:28.548Z,5.70
2018-06-17T08:57:56.817Z,5.97
2018-06-17T09:00:25.128Z,4.93
2018-06-17T09:02:53.471Z,5.20
2018-06-17T09:05:21.730Z,3.90
2018-06-17T09:07:50.014Z,4.10
2018-06-17T09:10:18.282Z,3.85
2018-06-17T09:12:47.486Z,3.72
2018-06-17T09:15:15.809Z,3.50
2018-06-17T09:17:44.154Z,3.70
2018-06-17T09:20:12.583Z,3.87
2018-06-17T09:22:40.915Z,3.67
2018-06-17T09:25:09.220Z,3.47
2018-06-17T09:27:37.478Z,3.27
2018-06-17T09:30:05.747Z,3.30
2018-06-17T09:32:34.100Z,3.63
2018-06-17T09:35:02.372Z,3.67
2018-06-17T09:37:30.653Z,3.50
2018-06-17T09:39:58.970Z,3.90
2018-06-17T09:42:27.246Z,4.00
2018-06-17T09:44:55.669Z,4.00
2018-06-17T09:47:23.956Z,3.93
2018-06-17T09:49:52.242Z,3.57
2018-06-17T09:52:20.525Z,3.40
2018-06-17T09:54:48.794Z,3.30
2018-06-17T09:57:17.198Z,4.07
2018-06-17T09:59:45.460Z,3.20
2018-06-17T10:02:13.800Z,3.80
2018-06-17T10:04:43.078Z,3.53
2018-06-17T10:07:11.767Z,3.80
2018-06-17T10:09:49.042Z,3.93
2018-06-17T10:12:17.378Z,4.00
2018-06-17T10:14:46.207Z,3.73
2018-06-17T10:17:14.486Z,3.53
2018-06-17T10:19:42.876Z,4.20
2018-06-17T10:22:11.139Z,3.80
2018-06-17T10:24:39.459Z,3.70
2018-06-17T10:27:07.769Z,3.67
2018-06-17T10:29:36.055Z,3.85
2018-06-17T10:32:04.294Z,4.03
2018-06-17T10:34:32.561Z,3.40
2018-06-17T10:37:00.841Z,4.10
2018-06-17T10:39:29.114Z,4.10
2018-06-17T10:41:57.466Z,3.80
2018-06-17T10:44:26.034Z,3.87
2018-06-17T10:46:54.798Z,3.70
2018-06-17T10:49:22.845Z,3.53
2018-06-17T10:51:51.231Z,3.87
2018-06-17T10:54:19.521Z,3.93
2018-06-17T10:56:47.892Z,4.03
2018-06-17T10:59:16.175Z,4.43
2018-06-17T11:01:44.460Z,4.00
2018-06-17T11:04:12.736Z,3.77
2018-06-17T11:06:41.008Z,3.17
2018-06-17T11:09:09.429Z,3.60
2018-06-17T11:11:37.686Z,3.33
2018-06-17T11:14:05.990Z,3.33
2018-06-17T11:16:34.256Z,3.40
2018-06-17T11:19:02.555Z,3.40
2018-06-17T11:21:30.925Z,3.08
2018-06-17T11:23:59.226Z,3.22
2018-06-17T11:26:27.482Z,3.40
2018-06-17T11:28:55.755Z,3.02
2018-06-17T11:31:24.092Z,3.15
2018-06-17T11:33:52.363Z,2.50
2018-06-17T11:36:20.734Z,3.10
2018-06-17T11:38:49.096Z,3.42
2018-06-17T11:41:17.316Z,3.05
2018-06-17T11:43:45.680Z,3.22
2018-06-17T11:46:13.961Z,2.90
2018-06-17T11:48:42.323Z,3.12
2018-06-17T11:51:10.695Z,3.00
2018-06-17T11:53:38.978Z,2.70
2018-06-17T11:56:07.245Z,2.90
2018-06-17T11:58:35.336Z,2.90
2018-06-17T12:01:03.747Z,3.00
2018-06-17T12:03:32.102Z,3.25
2018-06-17T12:06:00.432Z,2.83
2018-06-17T12:08:28.691Z,3.10
2018-06-17T12:10:56.973Z,2.77
2018-06-17T12:13:25.280Z,2.55
2018-06-17T12:15:53.278Z,2.80
2018-06-17T12:18:21.562Z,2.45
2018-06-17T12:20:49.822Z,2.70
2018-06-17T12:23:18.090Z,3.33
2018-06-17T12:25:46.454Z,2.65
2018-06-17T12:28:14.923Z,2.20
2018-06-17T12:30:43.241Z,2.12
2018-06-17T12:33:11.556Z,2.33
2018-06-17T12:35:39.818Z,2.17
2018-06-17T12:38:08.110Z,2.15
2018-06-17T12:40:36.366Z,2.37
2018-06-17T12:43:04.766Z,2.30
2018-06-17T12:45:33.028Z,2.40
2018-06-17T12:48:01.295Z,2.30
2018-06-17T12:50:29.560Z,2.50
2018-06-17T12:52:57.847Z,2.85
2018-06-17T12:55:26.107Z,2.40
2018-06-17T12:57:54.371Z,2.20
2018-06-17T13:00:22.625Z,2.60
2018-06-17T13:02:50.934Z,2.30
2018-06-17T13:05:19.191Z,2.10
2018-06-17T13:07:47.459Z,2.07
2018-06-17T13:10:15.731Z,2.20
2018-06-17T13:12:44.174Z,2.20
2018-06-17T13:15:12.631Z,2.30
2018-06-17T13:17:40.900Z,1.93
2018-06-17T13:20:09.159Z,2.40
2018-06-17T13:22:37.428Z,2.13
2018-06-17T13:25:05.846Z,2.30
2018-06-17T13:27:34.123Z,2.10
2018-06-17T13:30:02.395Z,2.37
2018-06-17T13:32:30.659Z,2.10
2018-06-17T13:34:58.657Z,2.30
2018-06-17T13:37:26.683Z,2.13
2018-06-17T13:39:54.941Z,1.73
2018-06-17T13:42:23.266Z,2.00
2018-06-17T13:44:51.534Z,1.90
2018-06-17T13:47:19.804Z,2.00
2018-06-17T13:49:48.057Z,2.00
2018-06-17T13:52:16.344Z,1.87
2018-06-17T13:54:44.683Z,2.10
2018-06-17T13:57:12.951Z,1.70
2018-06-17T13:59:41.251Z,1.90
2018-06-17T14:02:09.520Z,1.83
2018-06-17T14:04:37.797Z,2.10
2018-06-17T14:07:06.065Z,1.42
2018-06-17T14:09:34.350Z,1.90
2018-06-17T14:12:02.619Z,1.87
2018-06-17T14:14:30.903Z,1.77
2018-06-17T14:16:59.195Z,1.52
2018-06-17T14:19:27.452Z,2.10
2018-06-17T14:21:55.711Z,2.33
2018-06-17T14:24:23.969Z,1.80
2018-06-17T14:26:52.332Z,1.70
2018-06-17T14:29:20.624Z,1.90
2018-06-17T14:31:48.883Z,2.00
2018-06-17T14:34:17.143Z,1.87
2018-06-17T14:36:45.427Z,1.83
2018-06-17T14:39:13.701Z,1.80
2018-06-17T14:41:41.947Z,1.80
2018-06-17T14:44:15.646Z,1.70
2018-06-17T14:46:49.433Z,1.80
2018-06-17T14:49:23.170Z,2.08
2018-06-17T14:51:55.654Z,1.95
2018-06-17T14:54:24.704Z,2.00
2018-06-17T14:56:52.976Z,1.75
2018-06-17T14:59:21.231Z,1.65
2018-06-17T15:01:49.499Z,2.60
2018-06-17T15:04:17.775Z,1.72
2018-06-17T15:06:46.071Z,1.82
2018-06-17T15:09:14.341Z,1.82
2018-06-17T15:11:42.617Z,1.50
2018-06-17T15:14:10.871Z,1.80
2018-06-17T15:16:39.149Z,1.50
2018-06-17T15:19:07.404Z,1.70
2018-06-17T15:21:35.672Z,1.83
2018-06-17T15:24:03.939Z,1.60
2018-06-17T15:26:32.394Z,1.30
2018-06-17T15:29:00.720Z,1.47
2018-06-17T15:31:34.426Z,1.50
2018-06-17T15:35:06.763Z,1.60
2018-06-17T15:37:40.415Z,1.50
2018-06-17T15:40:08.686Z,1.23
2018-06-17T15:42:36.939Z,1.37
2018-06-17T15:45:05.314Z,1.20
2018-06-17T15:47:33.588Z,1.40
2018-06-17T15:50:02.193Z,1.70
2018-06-17T15:52:30.471Z,1.43
2018-06-17T15:54:58.734Z,1.70
2018-06-17T15:57:27.012Z,1.50
2018-06-17T15:59:55.579Z,1.87
2018-06-17T16:02:23.856Z,1.60
2018-06-17T16:04:52.113Z,1.30
2018-06-17T16:07:20.380Z,1.50
2018-06-17T16:09:48.485Z,1.63
2018-06-17T16:12:22.018Z,1.37
2018-06-17T16:14:55.620Z,1.47
2018-06-17T16:17:29.307Z,1.60
2018-06-17T16:20:02.946Z,1.83
2018-06-17T16:22:31.223Z,1.73
2018-06-17T16:24:59.496Z,1.57
2018-06-17T16:27:27.757Z,1.50
2018-06-17T16:29:56.039Z,1.70
2018-06-17T16:32:24.308Z,1.63
2018-06-17T16:34:52.631Z,1.83
2018-06-17T16:37:20.854Z,1.50
2018-06-17T16:39:49.114Z,1.67
2018-06-17T16:42:17.377Z,1.50
2018-06-17T16:44:45.639Z,1.50
2018-06-17T16:47:13.906Z,1.60
2018-06-17T16:49:42.167Z,1.60
2018-06-17T16:52:15.908Z,1.67
2018-06-17T16:54:49.678Z,1.60
2018-06-17T16:57:23.350Z,1.70
2018-06-17T16:59:52.894Z,1.90
2018-06-17T17:02:21.166Z,2.00
2018-06-17T17:04:49.447Z,2.00
2018-06-17T17:07:17.715Z,1.90
2018-06-17T17:09:46.009Z,1.70
2018-06-17T17:12:14.268Z,1.70
2018-06-17T17:14:42.535Z,1.50
2018-06-17T17:17:10.858Z,1.63
2018-06-17T17:19:39.126Z,1.80
2018-06-17T17:22:07.398Z,2.03
2018-06-17T17:24:35.678Z,2.00
2018-06-17T17:27:03.944Z,1.90
2018-06-17T17:29:32.256Z,1.80
2018-06-17T17:32:05.882Z,1.60
2018-06-17T17:34:39.523Z,1.90
2018-06-17T17:38:12.859Z,1.47
2018-06-17T17:40:44.811Z,1.50
2018-06-17T17:43:13.102Z,1.83
2018-06-17T17:46:45.547Z,2.07
2018-06-17T17:49:13.847Z,1.50
2018-06-17T17:51:42.120Z,1.70
2018-06-17T17:54:10.489Z,1.97
2018-06-17T17:56:38.739Z,1.73
2018-06-17T17:59:11.899Z,2.10
2018-06-17T18:01:40.203Z,1.90
2018-06-17T18:04:08.493Z,2.10
2018-06-17T18:06:36.753Z,2.17
2018-06-17T18:09:07.847Z,1.90
2018-06-17T18:11:36.133Z,2.10
2018-06-17T18:14:04.831Z,1.90
2018-06-17T18:16:33.262Z,2.20
2018-06-17T18:19:01.543Z,2.20
2018-06-17T18:21:29.811Z,2.10
2018-06-17T18:23:58.123Z,2.30
2018-06-17T18:26:31.873Z,1.93
2018-06-17T18:29:05.492Z,2.50
2018-06-17T18:31:39.247Z,2.13
2018-06-17T18:34:13.064Z,2.20
2018-06-17T18:36:41.350Z,2.30
2018-06-17T18:39:09.619Z,2.00
2018-06-17T18:41:38.708Z,2.50
2018-06-17T18:44:06.974Z,2.20
2018-06-17T18:46:35.362Z,2.30
2018-06-17T18:49:03.675Z,2.27
2018-06-17T18:51:31.928Z,2.37
2018-06-17T18:54:00.039Z,2.27
2018-06-17T18:56:28.323Z,2.57
2018-06-17T18:58:56.615Z,2.47
2018-06-17T19:01:24.935Z,2.50
2018-06-17T19:03:53.239Z,2.70
2018-06-17T19:06:21.504Z,2.70
2018-06-17T19:08:55.177Z,2.23
2018-06-17T19:11:28.918Z,2.33
2018-06-17T19:14:02.500Z,2.37
2018-06-17T19:16:36.443Z,2.60
2018-06-17T19:19:05.586Z,3.10
2018-06-17T19:21:33.849Z,2.50
2018-06-17T19:24:02.105Z,2.30
2018-06-17T19:26:30.411Z,2.93
2018-06-17T19:28:58.638Z,2.73
2018-06-17T19:31:26.911Z,2.77
2018-06-17T19:33:55.289Z,3.10
2018-06-17T19:36:23.561Z,2.80
2018-06-17T19:38:51.826Z,3.03
2018-06-17T19:41:20.103Z,3.13
2018-06-17T19:43:48.385Z,2.90
2018-06-17T19:46:16.717Z,2.87
2018-06-17T19:48:45.311Z,3.07
2018-06-17T19:51:18.872Z,2.90
2018-06-17T19:53:52.607Z,3.50
2018-06-17T19:56:26.291Z,3.40
2018-06-17T19:59:00.028Z,2.90
2018-06-17T20:01:28.308Z,2.77
2018-06-17T20:03:56.640Z,3.10
2018-06-17T20:06:25.200Z,2.80
2018-06-17T20:08:53.304Z,3.47
2018-06-17T20:11:21.579Z,3.17
2018-06-17T20:13:49.910Z,3.07
2018-06-17T20:16:18.218Z,3.00
2018-06-17T20:18:48.606Z,3.50
2018-06-17T20:21:16.872Z,3.90
2018-06-17T20:23:45.188Z,3.23
2018-06-17T20:26:13.444Z,3.70
2018-06-17T20:28:41.696Z,4.00
2018-06-17T20:31:09.971Z,3.60
2018-06-17T20:33:43.662Z,3.67
2018-06-17T20:36:17.061Z,4.13
2018-06-17T20:38:51.188Z,3.73
2018-06-17T20:41:24.932Z,3.60
2018-06-17T20:43:54.286Z,3.83
2018-06-17T20:46:22.545Z,4.03
2018-06-17T20:48:50.994Z,3.90
2018-06-17T20:51:19.834Z,3.33
2018-06-17T20:53:48.444Z,3.73
2018-06-17T20:56:16.459Z,4.03
2018-06-17T20:58:44.739Z,4.50
2018-06-17T21:01:13.014Z,4.10
2018-06-17T21:03:41.301Z,4.10
2018-06-17T21:06:09.592Z,4.67
2018-06-17T21:08:37.859Z,3.97
2018-06-17T21:11:06.125Z,4.73
2018-06-17T21:13:34.424Z,4.40
2018-06-17T21:16:02.688Z,5.00
2018-06-17T21:18:36.323Z,5.00
2018-06-17T21:21:09.969Z,5.47
2018-06-17T21:23:43.732Z,4.53
2018-06-17T21:26:17.282Z,5.30
2018-06-17T21:28:45.545Z,5.57
2018-06-17T21:31:13.804Z,5.50
2018-06-17T21:33:42.073Z,6.33
2018-06-17T21:36:10.359Z,6.00
2018-06-17T21:38:38.628Z,5.90
2018-06-17T21:41:07.404Z,5.80
2018-06-17T21:43:35.671Z,6.17
2018-06-17T21:46:03.931Z,6.60
2018-06-17T21:48:32.213Z,6.40
2018-06-17T21:51:00.473Z,7.83
2018-06-17T21:53:28.736Z,7.70
2018-06-17T21:55:56.991Z,8.47
2018-06-17T21:58:30.627Z,7.43
2018-06-17T22:00:58.900Z,6.63
2018-06-17T22:03:27.172Z,6.40
2018-06-17T22:05:55.426Z,6.53
2018-06-17T22:08:28.885Z,6.30
2018-06-17T22:11:02.595Z,6.20
2018-06-17T22:13:36.242Z,6.53
2018-06-17T22:16:09.948Z,5.37
2018-06-17T22:18:38.212Z,5.17
2018-06-17T22:21:06.486Z,4.90
2018-06-17T22:23:34.759Z,5.50
2018-06-17T22:26:03.017Z,4.80
2018-06-17T22:28:31.280Z,5.87
2018-06-17T22:30:59.550Z,5.17
2018-06-17T22:33:27.817Z,5.60
2018-06-17T22:35:56.073Z,5.13
2018-06-17T22:38:24.336Z,5.00
2018-06-17T22:40:52.611Z,4.73
2018-06-17T22:43:20.870Z,5.20
2018-06-17T22:45:49.698Z,4.77
2018-06-17T22:48:18.018Z,5.37
2018-06-17T22:50:46.284Z,5.00
2018-06-17T22:53:25.979Z,5.43
2018-06-17T22:55:54.250Z,5.83
2018-06-17T22:58:28.009Z,5.20
2018-06-17T23:01:01.758Z,5.47
2018-06-17T23:03:35.588Z,5.97
2018-06-17T23:06:09.316Z,6.17
2018-06-17T23:08:43.138Z,5.27
2018-06-17T23:11:11.420Z,5.57
2018-06-17T23:13:39.722Z,5.37
2018-06-17T23:16:07.979Z,5.70
2018-06-17T23:18:36.248Z,6.03
2018-06-17T23:21:04.566Z,5.80
2018-06-17T23:23:32.828Z,5.40
2018-06-17T23:26:01.092Z,5.60
2018-06-17T23:28:29.354Z,5.07
2018-06-17T23:30:57.634Z,5.50
2018-06-17T23:33:25.888Z,5.50
2018-06-17T23:35:54.148Z,5.63
2018-06-17T23:38:22.440Z,5.50
2018-06-17T23:40:50.688Z,5.63
2018-06-17T23:43:18.951Z,5.30
2018-06-17T23:45:52.429Z,5.87
2018-06-17T23:48:26.164Z,5.43
2018-06-17T23:50:59.947Z,5.50
2018-06-17T23:53:33.639Z,5.07
2018-06-17T23:56:07.163Z,4.80
2018-06-17T23:58:36.057Z,5.30
